createdAt,value
2017-11-19T00:00:41.548Z,97663.72
2017-11-19T00:01:45.232Z,97706.27
2017-11-19T00:02:48.924Z,97713.28
2017-11-19T00:03:52.701Z,97693.83
2017-11-19T00:04:56.392Z,97667.39
2017-11-19T00:06:00.359Z,97697.67
2017-11-19T00:07:04.079Z,97639.57
2017-11-19T00:08:07.844Z,97683.86
2017-11-19T00:09:11.547Z,97702.55
2017-11-19T00:10:15.235Z,97691.25
2017-11-19T00:11:19.007Z,97686.56
2017-11-19T00:12:22.995Z,97700.73
2017-11-19T00:13:26.676Z,97701.50
2017-11-19T00:14:30.395Z,97690.05
2017-11-19T00:15:34.112Z,97679.27
2017-11-19T00:16:37.792Z,97700.62
2017-11-19T00:17:41.484Z,97660.69
2017-11-19T00:18:45.488Z,97671.25
2017-11-19T00:19:49.168Z,97680.46
2017-11-19T00:20:52.848Z,97671.20
2017-11-19T00:21:56.562Z,97659.95
2017-11-19T00:23:03.594Z,97676.48
2017-11-19T00:24:08.187Z,97678.56
2017-11-19T00:25:12.127Z,97671.36
2017-11-19T00:26:16.130Z,97644.57
2017-11-19T00:27:19.822Z,97651.98
2017-11-19T00:28:23.865Z,97651.85
2017-11-19T00:29:27.526Z,97663.62
2017-11-19T00:30:31.266Z,97659.78
2017-11-19T00:31:35.300Z,97653.37
2017-11-19T00:32:39.009Z,97642.89
2017-11-19T00:33:42.680Z,97676.98
2017-11-19T00:34:46.392Z,97640.09
2017-11-19T00:35:50.093Z,97674.88
2017-11-19T00:36:53.756Z,97673.69
2017-11-19T00:37:57.767Z,97699.25
2017-11-19T00:39:01.477Z,97665.09
2017-11-19T00:40:05.226Z,97666.39
2017-11-19T00:41:08.939Z,97675.09
2017-11-19T00:42:12.705Z,97628.80
2017-11-19T00:43:16.414Z,97671.48
2017-11-19T00:44:20.380Z,97655.94
2017-11-19T00:45:24.876Z,97635.09
2017-11-19T00:46:28.599Z,97618.98
2017-11-19T00:47:32.251Z,97665.84
2017-11-19T00:48:35.950Z,97661.05
2017-11-19T00:49:39.655Z,97633.74
2017-11-19T00:50:43.645Z,97661.14
2017-11-19T00:51:47.351Z,97648.02
2017-11-19T00:52:51.026Z,97650.38
2017-11-19T00:53:54.727Z,97666.17
2017-11-19T00:54:58.680Z,97643.42
2017-11-19T00:56:02.447Z,97642.81
2017-11-19T00:57:06.431Z,97639.69
2017-11-19T00:58:10.115Z,97656.36
2017-11-19T00:59:13.941Z,97650.48
2017-11-19T01:00:17.603Z,97635.12
2017-11-19T01:01:21.855Z,97644.57
2017-11-19T01:02:25.559Z,97631.22
2017-11-19T01:03:29.629Z,97645.63
2017-11-19T01:04:33.344Z,97648.47
2017-11-19T01:05:37.108Z,97649.73
2017-11-19T01:06:40.812Z,97632.36
2017-11-19T01:07:44.539Z,97647.56
2017-11-19T01:08:48.373Z,97649.39
2017-11-19T01:09:52.160Z,97653.23
2017-11-19T01:10:55.929Z,97649.83
2017-11-19T01:11:59.735Z,97646.73
2017-11-19T01:13:03.571Z,97656.52
2017-11-19T01:14:07.264Z,97651.29
2017-11-19T01:15:11.602Z,97647.73
2017-11-19T01:16:15.220Z,97632.15
2017-11-19T01:17:19.038Z,97627.95
2017-11-19T01:18:22.819Z,97494.85
2017-11-19T01:19:26.571Z,97643.05
2017-11-19T01:20:30.445Z,97641.62
2017-11-19T01:21:34.382Z,97635.61
2017-11-19T01:22:38.098Z,97639.81
2017-11-19T01:23:41.799Z,97606.58
2017-11-19T01:24:45.468Z,97634.19
2017-11-19T01:25:49.169Z,97629.86
2017-11-19T01:26:52.841Z,97635.52
2017-11-19T01:27:56.803Z,97636.23
2017-11-19T01:29:00.436Z,97591.68
2017-11-19T01:30:04.150Z,97618.66
2017-11-19T01:31:07.844Z,97633.74
2017-11-19T01:32:11.505Z,97635.48
2017-11-19T01:33:15.188Z,97620.00
2017-11-19T01:34:19.147Z,97629.91
2017-11-19T01:35:22.797Z,97634.52
2017-11-19T01:36:27.138Z,97626.88
2017-11-19T01:37:30.737Z,97628.16
2017-11-19T01:38:34.563Z,97618.72
2017-11-19T01:39:38.248Z,97630.08
2017-11-19T01:40:41.954Z,97634.47
2017-11-19T01:41:45.706Z,97641.14
2017-11-19T01:42:49.493Z,97644.20
2017-11-19T01:43:53.272Z,97646.90
2017-11-19T01:44:57.067Z,97639.50
2017-11-19T01:46:00.842Z,97635.28
2017-11-19T01:47:05.718Z,97645.70
2017-11-19T01:48:09.574Z,97644.42
2017-11-19T01:49:13.351Z,97643.33
2017-11-19T01:50:17.108Z,97642.00
2017-11-19T01:51:20.854Z,97622.13
2017-11-19T01:52:24.611Z,97642.61
2017-11-19T01:53:28.663Z,97638.23
2017-11-19T01:54:32.471Z,97635.52
2017-11-19T01:55:36.662Z,97629.39
2017-11-19T01:56:40.408Z,97650.27
2017-11-19T01:57:44.167Z,97644.27
2017-11-19T01:58:47.952Z,97647.20
2017-11-19T01:59:51.995Z,97655.78
2017-11-19T02:00:55.773Z,97660.00
2017-11-19T02:01:59.557Z,97663.35
2017-11-19T02:03:03.345Z,97666.62
2017-11-19T02:04:07.192Z,97664.52
2017-11-19T02:05:10.946Z,97646.23
2017-11-19T02:06:15.025Z,97638.07
2017-11-19T02:07:18.785Z,97652.42
2017-11-19T02:08:22.609Z,97625.02
2017-11-19T02:09:26.410Z,97635.30
2017-11-19T02:10:30.133Z,97653.33
2017-11-19T02:11:34.401Z,97639.91
2017-11-19T02:12:38.391Z,97635.61
2017-11-19T02:13:42.231Z,97651.24
2017-11-19T02:14:46.008Z,97661.13
2017-11-19T02:15:49.811Z,97665.26
2017-11-19T02:16:53.543Z,97667.77
2017-11-19T02:17:57.271Z,97670.63
2017-11-19T02:19:01.221Z,97666.25
2017-11-19T02:20:04.930Z,97651.19
2017-11-19T02:21:08.621Z,97664.31
2017-11-19T02:22:12.306Z,97667.64
2017-11-19T02:23:15.973Z,97673.36
2017-11-19T02:24:19.734Z,97665.61
2017-11-19T02:25:23.766Z,97676.13
2017-11-19T02:26:27.439Z,97656.61
2017-11-19T02:27:31.190Z,97675.58
2017-11-19T02:28:34.886Z,97670.48
2017-11-19T02:29:38.642Z,97652.87
2017-11-19T02:30:52.157Z,97627.06
2017-11-19T02:31:55.905Z,97662.12
2017-11-19T02:32:59.710Z,97670.05
2017-11-19T02:34:03.534Z,97669.67
2017-11-19T02:35:07.277Z,97657.98
2017-11-19T02:36:11.070Z,97678.28
2017-11-19T02:37:15.181Z,97685.66
2017-11-19T02:38:19.095Z,97678.89
2017-11-19T02:39:22.872Z,97682.22
2017-11-19T02:40:27.432Z,97681.64
2017-11-19T02:41:31.205Z,97674.31
2017-11-19T02:42:35.655Z,97673.83
2017-11-19T02:43:39.729Z,97673.57
2017-11-19T02:44:43.700Z,97670.09
2017-11-19T02:45:47.501Z,97668.73
2017-11-19T02:46:51.333Z,97665.47
2017-11-19T02:47:55.134Z,97665.55
2017-11-19T02:48:59.130Z,97676.97
2017-11-19T02:50:03.226Z,97649.33
2017-11-19T02:51:07.043Z,97669.51
2017-11-19T02:52:10.819Z,97649.14
2017-11-19T02:53:14.610Z,97631.96
2017-11-19T02:54:18.389Z,97649.53
2017-11-19T02:55:22.162Z,97655.50
2017-11-19T02:56:26.220Z,97633.48
2017-11-19T02:57:29.971Z,97661.56
2017-11-19T02:58:33.747Z,97662.25
2017-11-19T02:59:37.554Z,97665.61
2017-11-19T03:00:41.554Z,97648.13
2017-11-19T03:01:45.291Z,97657.86
2017-11-19T03:02:49.350Z,97657.76
2017-11-19T03:03:53.143Z,97653.10
2017-11-19T03:04:56.915Z,97660.61
2017-11-19T03:06:00.672Z,97640.77
2017-11-19T03:07:04.475Z,97655.40
2017-11-19T03:08:08.235Z,97658.48
2017-11-19T03:09:12.142Z,97653.42
2017-11-19T03:10:15.872Z,97661.58
2017-11-19T03:11:19.590Z,97660.98
2017-11-19T03:12:23.286Z,97673.32
2017-11-19T03:13:26.969Z,97657.45
2017-11-19T03:14:30.704Z,97664.71
2017-11-19T03:15:34.520Z,97657.83
2017-11-19T03:16:38.350Z,97661.97
2017-11-19T03:17:42.263Z,97675.80
2017-11-19T03:18:46.030Z,97666.44
2017-11-19T03:19:49.827Z,97658.22
2017-11-19T03:20:53.573Z,97670.48
2017-11-19T03:21:57.753Z,97641.80
2017-11-19T03:23:01.591Z,97664.75
2017-11-19T03:24:05.452Z,97651.30
2017-11-19T03:25:09.244Z,97663.04
2017-11-19T03:26:12.945Z,97662.94
2017-11-19T03:27:16.755Z,97666.19
2017-11-19T03:28:20.709Z,97667.52
2017-11-19T03:29:24.393Z,97672.78
2017-11-19T03:30:28.261Z,97669.41
2017-11-19T03:31:31.972Z,97660.27
2017-11-19T03:32:35.722Z,97677.75
2017-11-19T03:33:39.458Z,97684.56
2017-11-19T03:34:43.562Z,97649.23
2017-11-19T03:35:47.304Z,97662.38
2017-11-19T03:36:51.011Z,97658.70
2017-11-19T03:37:54.729Z,97671.31
2017-11-19T03:38:58.528Z,97684.27
2017-11-19T03:40:02.253Z,97672.67
2017-11-19T03:41:06.342Z,97657.20
2017-11-19T03:42:10.126Z,97672.86
2017-11-19T03:43:13.865Z,97655.27
2017-11-19T03:44:17.628Z,97676.92
2017-11-19T03:45:21.408Z,97682.52
2017-11-19T03:46:25.171Z,97668.15
2017-11-19T03:47:29.214Z,97658.12
2017-11-19T03:48:32.996Z,97651.50
2017-11-19T03:49:36.702Z,97662.63
2017-11-19T03:50:40.420Z,97649.86
2017-11-19T03:51:44.127Z,97674.61
2017-11-19T03:52:48.699Z,97674.70
2017-11-19T03:53:52.726Z,97672.53
2017-11-19T03:54:56.465Z,97667.42
2017-11-19T03:56:00.163Z,97656.71
2017-11-19T03:57:03.779Z,97659.70
2017-11-19T03:58:07.378Z,97663.58
2017-11-19T03:59:11.059Z,97666.55
2017-11-19T04:00:14.947Z,97659.91
2017-11-19T04:01:18.540Z,97660.82
2017-11-19T04:02:22.156Z,97660.13
2017-11-19T04:03:25.915Z,97679.13
2017-11-19T04:04:29.611Z,97661.80
2017-11-19T04:05:33.379Z,97679.22
2017-11-19T04:06:37.498Z,97680.25
2017-11-19T04:07:41.295Z,97673.49
2017-11-19T04:08:45.066Z,97661.37
2017-11-19T04:09:48.905Z,97677.07
2017-11-19T04:10:52.759Z,97673.63
2017-11-19T04:11:56.538Z,97653.80
2017-11-19T04:13:00.310Z,97673.85
2017-11-19T04:14:04.083Z,97643.95
2017-11-19T04:15:07.925Z,97675.16
2017-11-19T04:16:11.711Z,97678.61
2017-11-19T04:17:15.500Z,97664.05
2017-11-19T04:18:19.563Z,97680.49
2017-11-19T04:19:23.410Z,97685.53
2017-11-19T04:20:27.245Z,97684.72
2017-11-19T04:21:31.057Z,97680.05
2017-11-19T04:22:34.872Z,97687.38
2017-11-19T04:23:38.685Z,97691.66
2017-11-19T04:24:42.842Z,97689.08
2017-11-19T04:25:47.407Z,97688.68
2017-11-19T04:26:51.172Z,97691.98
2017-11-19T04:27:55.129Z,97699.77
2017-11-19T04:28:58.937Z,97700.16
2017-11-19T04:30:02.781Z,97695.40
2017-11-19T04:31:06.824Z,97685.38
2017-11-19T04:32:10.586Z,97676.86
2017-11-19T04:33:14.405Z,97693.25
2017-11-19T04:34:18.202Z,97695.97
2017-11-19T04:35:21.974Z,97690.98
2017-11-19T04:36:25.731Z,97692.97
2017-11-19T04:37:29.831Z,97709.66
2017-11-19T04:38:33.600Z,97706.34
2017-11-19T04:39:37.384Z,97696.22
2017-11-19T04:40:41.231Z,97682.73
2017-11-19T04:41:45.061Z,97694.42
2017-11-19T04:42:48.824Z,97700.80
2017-11-19T04:43:52.888Z,97693.13
2017-11-19T04:44:56.666Z,97702.58
2017-11-19T04:46:00.413Z,97714.99
2017-11-19T04:47:04.254Z,97684.20
2017-11-19T04:48:08.038Z,97706.45
2017-11-19T04:49:11.843Z,97708.77
2017-11-19T04:50:15.668Z,97712.12
2017-11-19T04:51:19.392Z,97715.61
2017-11-19T04:52:23.230Z,97699.66
2017-11-19T04:53:27.023Z,97700.20
2017-11-19T04:54:30.788Z,97705.15
2017-11-19T04:55:34.559Z,97711.57
2017-11-19T04:56:38.684Z,97713.98
2017-11-19T04:57:42.495Z,97719.09
2017-11-19T04:58:46.313Z,97710.03
2017-11-19T04:59:50.116Z,97729.63
2017-11-19T05:15:18.270Z,97719.88
2017-11-19T05:16:21.958Z,97678.48
2017-11-19T05:17:25.583Z,97714.80
2017-11-19T05:18:29.131Z,97704.83
2017-11-19T05:19:33.820Z,97715.27
2017-11-19T05:20:37.648Z,97704.92
2017-11-19T05:21:41.389Z,97716.06
2017-11-19T05:22:45.083Z,97709.45
2017-11-19T05:23:48.949Z,97704.70
2017-11-19T05:24:52.537Z,97719.16
2017-11-19T05:25:56.231Z,97720.03
2017-11-19T05:27:00.188Z,97707.66
2017-11-19T05:28:03.914Z,97699.00
2017-11-19T05:29:07.617Z,97729.02
2017-11-19T05:30:11.174Z,97705.39
2017-11-19T05:31:14.717Z,97719.00
2017-11-19T05:32:18.447Z,97673.69
2017-11-19T05:33:22.509Z,97724.30
2017-11-19T05:34:26.372Z,97725.52
2017-11-19T05:35:30.666Z,97729.39
2017-11-19T05:36:34.362Z,97716.44
2017-11-19T05:37:38.064Z,97732.73
2017-11-19T05:38:41.739Z,97722.70
2017-11-19T05:39:45.738Z,97743.13
2017-11-19T05:40:49.441Z,97715.24
2017-11-19T05:41:53.080Z,97732.26
2017-11-19T05:42:56.700Z,97728.00
2017-11-19T05:44:00.297Z,97725.78
2017-11-19T05:45:03.941Z,97694.55
2017-11-19T05:46:07.860Z,97722.86
2017-11-19T05:47:11.470Z,97735.62
2017-11-19T05:48:15.081Z,97733.86
2017-11-19T05:49:18.732Z,97743.88
2017-11-19T05:50:22.341Z,97740.77
2017-11-19T05:51:25.949Z,97742.33
2017-11-19T05:52:29.960Z,97725.93
2017-11-19T05:53:34.029Z,97726.42
2017-11-19T05:54:37.720Z,97743.56
2017-11-19T05:55:41.456Z,97740.33
2017-11-19T05:56:45.276Z,97742.88
2017-11-19T05:57:48.974Z,97723.95
2017-11-19T05:58:53.031Z,97744.31
2017-11-19T05:59:56.754Z,97725.58
2017-11-19T06:01:00.483Z,97737.87
2017-11-19T06:02:04.336Z,97719.74
2017-11-19T06:03:08.088Z,97742.70
2017-11-19T06:04:11.830Z,97739.73
2017-11-19T06:05:15.835Z,97738.66
2017-11-19T06:06:19.604Z,97741.05
2017-11-19T06:07:23.336Z,97743.49
2017-11-19T06:08:27.038Z,97727.69
2017-11-19T06:09:30.747Z,97740.80
2017-11-19T06:10:34.450Z,97741.96
2017-11-19T06:11:38.485Z,97711.25
2017-11-19T06:12:42.189Z,97738.72
2017-11-19T06:13:45.875Z,97738.23
2017-11-19T06:14:49.664Z,97737.42
2017-11-19T06:15:53.362Z,97747.39
2017-11-19T06:16:57.067Z,97746.07
2017-11-19T06:18:01.087Z,97746.92
2017-11-19T06:19:04.872Z,97727.80
2017-11-19T06:20:08.648Z,97744.22
2017-11-19T06:21:12.367Z,97751.48
2017-11-19T06:22:16.135Z,97752.80
2017-11-19T06:23:19.871Z,97744.85
2017-11-19T06:24:23.860Z,97735.80
2017-11-19T06:25:27.674Z,97757.84
2017-11-19T06:26:31.335Z,97743.91
2017-11-19T06:27:35.028Z,97753.16
2017-11-19T06:28:38.754Z,97722.27
2017-11-19T06:29:42.491Z,97762.13
2017-11-19T06:30:46.672Z,97764.10
2017-11-19T06:31:50.566Z,97767.02
2017-11-19T06:32:54.316Z,97768.94
2017-11-19T06:33:58.053Z,97775.85
2017-11-19T06:35:01.862Z,97765.91
2017-11-19T06:36:05.626Z,97753.89
2017-11-19T06:37:09.712Z,97773.85
2017-11-19T06:38:13.477Z,97762.49
2017-11-19T06:39:17.792Z,97765.64
2017-11-19T06:40:21.583Z,97770.70
2017-11-19T06:41:25.224Z,97782.31
2017-11-19T06:42:28.869Z,97766.80
2017-11-19T06:43:33.012Z,97764.94
2017-11-19T06:44:37.344Z,97768.30
2017-11-19T06:45:41.099Z,97756.58
2017-11-19T06:46:44.809Z,97769.73
2017-11-19T06:47:48.483Z,97770.44
2017-11-19T06:48:52.517Z,97769.54
2017-11-19T06:49:56.221Z,97771.20
2017-11-19T06:50:59.913Z,97774.45
2017-11-19T06:52:03.739Z,97774.56
2017-11-19T06:53:07.769Z,97773.27
2017-11-19T06:54:11.802Z,97768.61
2017-11-19T06:55:15.944Z,97774.03
2017-11-19T06:56:19.778Z,97764.98
2017-11-19T06:57:23.559Z,97684.56
2017-11-19T06:58:27.372Z,97772.37
2017-11-19T06:59:31.160Z,97772.71
2017-11-19T07:00:34.977Z,97770.69
2017-11-19T07:01:39.122Z,97744.25
2017-11-19T07:02:42.903Z,97761.63
2017-11-19T07:03:46.667Z,97775.41
2017-11-19T07:04:50.402Z,97773.17
2017-11-19T07:05:54.171Z,97771.93
2017-11-19T07:06:58.293Z,97776.84
2017-11-19T07:08:02.448Z,97731.02
2017-11-19T07:09:06.211Z,97771.33
2017-11-19T07:10:09.896Z,97773.00
2017-11-19T07:11:13.584Z,97767.25
2017-11-19T07:12:17.212Z,97769.15
2017-11-19T07:13:20.861Z,97775.28
2017-11-19T07:14:24.931Z,97766.16
2017-11-19T07:15:28.552Z,97771.76
2017-11-19T07:16:32.413Z,97768.70
2017-11-19T07:17:36.189Z,97781.59
2017-11-19T07:18:39.896Z,97787.23
2017-11-19T07:19:43.612Z,97786.96
2017-11-19T07:20:47.738Z,97785.75
2017-11-19T07:21:51.373Z,97750.23
2017-11-19T07:22:54.923Z,97785.91
2017-11-19T07:23:58.616Z,97784.98
2017-11-19T07:25:02.313Z,97796.09
2017-11-19T07:26:05.944Z,97791.52
2017-11-19T07:27:10.297Z,97791.47
2017-11-19T07:28:14.259Z,97795.72
2017-11-19T07:29:18.202Z,97799.05
2017-11-19T07:30:22.154Z,97803.80
2017-11-19T07:31:26.081Z,97807.77
2017-11-19T07:32:29.943Z,97805.63
2017-11-19T07:33:34.239Z,97809.00
2017-11-19T07:34:38.209Z,97800.21
2017-11-19T07:35:41.984Z,97756.56
2017-11-19T07:36:45.917Z,97800.44
2017-11-19T07:37:49.764Z,97807.47
2017-11-19T07:38:53.668Z,97811.06
2017-11-19T07:39:58.253Z,97820.38
2017-11-19T07:41:02.066Z,97820.94
2017-11-19T07:42:05.944Z,97817.55
2017-11-19T07:43:10.291Z,97817.67
2017-11-19T07:44:14.093Z,97813.31
2017-11-19T07:45:17.924Z,97799.60
2017-11-19T07:46:22.331Z,97816.31
2017-11-19T07:47:26.161Z,97788.94
2017-11-19T07:48:29.991Z,97812.89
2017-11-19T07:49:33.726Z,97809.17
2017-11-19T07:50:37.511Z,97804.88
2017-11-19T07:51:41.313Z,97808.09
2017-11-19T07:52:45.536Z,97804.19
2017-11-19T07:53:49.312Z,97814.23
2017-11-19T07:54:53.185Z,97813.95
2017-11-19T07:55:56.971Z,97793.59
2017-11-19T07:57:00.786Z,97806.36
2017-11-19T07:58:04.651Z,97818.03
2017-11-19T07:59:08.843Z,97817.80
2017-11-19T08:00:12.638Z,97817.27
2017-11-19T08:01:16.473Z,97808.63
2017-11-19T08:02:20.258Z,97809.78
2017-11-19T08:03:24.100Z,97820.83
2017-11-19T08:04:27.830Z,97824.40
2017-11-19T08:05:32.011Z,97816.77
2017-11-19T08:06:35.811Z,97813.75
2017-11-19T08:07:39.664Z,97834.35
2017-11-19T08:08:43.501Z,97817.88
2017-11-19T08:09:47.353Z,97829.37
2017-11-19T08:10:51.280Z,97828.50
2017-11-19T08:11:55.384Z,97826.41
2017-11-19T08:12:59.356Z,97826.90
2017-11-19T08:14:03.459Z,97828.99
2017-11-19T08:15:07.497Z,97830.68
2017-11-19T08:16:11.297Z,97837.98
2017-11-19T08:17:16.153Z,97835.92
2017-11-19T08:18:20.471Z,97758.52
2017-11-19T08:19:24.410Z,97833.84
2017-11-19T08:20:28.248Z,97839.30
2017-11-19T08:21:32.136Z,97841.58
2017-11-19T08:22:35.915Z,97843.05
2017-11-19T08:23:40.192Z,97798.61
2017-11-19T08:24:44.012Z,97845.14
2017-11-19T08:25:47.841Z,97836.98
2017-11-19T08:26:51.520Z,97756.71
2017-11-19T08:27:55.316Z,97836.52
2017-11-19T08:28:59.788Z,97830.65
2017-11-19T08:30:03.901Z,97840.59
2017-11-19T08:31:07.696Z,97836.78
2017-11-19T08:32:11.419Z,97787.12
2017-11-19T08:33:15.409Z,97848.59
2017-11-19T08:34:19.288Z,97851.69
2017-11-19T08:35:23.112Z,97851.16
2017-11-19T08:36:27.375Z,97776.92
2017-11-19T08:37:31.179Z,97849.38
2017-11-19T08:38:35.044Z,97843.05
2017-11-19T08:39:38.871Z,97842.37
2017-11-19T08:40:42.703Z,97841.95
2017-11-19T08:41:46.499Z,97841.98
2017-11-19T08:42:50.672Z,97829.44
2017-11-19T08:43:54.478Z,97836.44
2017-11-19T08:44:58.274Z,97825.41
2017-11-19T08:46:03.903Z,97843.64
2017-11-19T08:47:07.745Z,97844.14
2017-11-19T08:48:11.517Z,97842.42
2017-11-19T08:49:15.197Z,97748.19
2017-11-19T08:50:18.870Z,97801.16
2017-11-19T08:51:22.518Z,97840.84
2017-11-19T08:52:26.203Z,97851.28
2017-11-19T08:53:29.834Z,97831.34
2017-11-19T08:54:33.727Z,97837.84
2017-11-19T08:55:37.392Z,97817.69
2017-11-19T08:56:41.106Z,97821.97
2017-11-19T08:57:44.802Z,97821.36
2017-11-19T08:58:48.532Z,97839.92
2017-11-19T08:59:52.227Z,97834.20
2017-11-19T09:00:56.278Z,97848.25
2017-11-19T09:02:00.126Z,97842.10
2017-11-19T09:03:03.948Z,97832.27
2017-11-19T09:04:07.761Z,97861.56
2017-11-19T09:05:11.579Z,97864.57
2017-11-19T09:06:15.395Z,97868.42
2017-11-19T09:07:19.538Z,97860.65
2017-11-19T09:08:23.326Z,97863.59
2017-11-19T09:09:27.114Z,97841.78
2017-11-19T09:10:30.909Z,97860.78
2017-11-19T09:11:34.736Z,97848.31
2017-11-19T09:12:38.642Z,97841.34
2017-11-19T09:13:42.734Z,97840.42
2017-11-19T09:14:46.535Z,97864.52
2017-11-19T09:15:50.412Z,97856.75
2017-11-19T09:16:54.182Z,97842.17
2017-11-19T09:17:57.986Z,97857.52
2017-11-19T09:19:01.826Z,97868.70
2017-11-19T09:20:05.988Z,97862.69
2017-11-19T09:21:09.819Z,97858.26
2017-11-19T09:22:13.605Z,97853.03
2017-11-19T09:23:17.509Z,97866.23
2017-11-19T09:24:21.293Z,97869.20
2017-11-19T09:25:24.964Z,97845.14
2017-11-19T09:26:28.903Z,97865.13
2017-11-19T09:27:32.521Z,97872.07
2017-11-19T09:28:36.223Z,97873.25
2017-11-19T09:29:40.079Z,97881.55
2017-11-19T09:30:43.959Z,97898.23
2017-11-19T09:31:47.844Z,97872.61
2017-11-19T09:32:52.056Z,97855.16
2017-11-19T09:33:55.903Z,97881.61
2017-11-19T09:34:59.728Z,97853.78
2017-11-19T09:36:03.571Z,97850.36
2017-11-19T09:37:07.349Z,97856.77
2017-11-19T09:38:11.176Z,97831.98
2017-11-19T09:39:15.237Z,97904.98
2017-11-19T09:40:18.870Z,97878.75
2017-11-19T09:41:22.785Z,97888.75
2017-11-19T09:42:26.529Z,97878.69
2017-11-19T09:43:30.230Z,97896.89
2017-11-19T09:44:33.971Z,97820.56
2017-11-19T09:45:38.036Z,97887.30
2017-11-19T09:46:41.847Z,97892.52
2017-11-19T09:47:45.661Z,97896.64
2017-11-19T09:48:49.508Z,97895.23
2017-11-19T09:49:53.344Z,97897.84
2017-11-19T09:50:57.147Z,97865.42
2017-11-19T09:52:01.320Z,97885.55
2017-11-19T09:53:05.111Z,97878.13
2017-11-19T09:54:08.972Z,97893.34
2017-11-19T09:55:12.695Z,97877.40
2017-11-19T09:56:16.361Z,97844.49
2017-11-19T09:57:20.059Z,97899.77
2017-11-19T09:58:23.773Z,97861.18
2017-11-19T09:59:27.412Z,97901.09
2017-11-19T10:00:31.330Z,97878.67
2017-11-19T10:01:35.159Z,97872.95
2017-11-19T10:02:39.017Z,97892.53
2017-11-19T10:03:42.888Z,97887.05
2017-11-19T10:04:46.720Z,97882.97
2017-11-19T10:05:50.515Z,97892.99
2017-11-19T10:06:54.359Z,97901.77
2017-11-19T10:07:58.163Z,97898.03
2017-11-19T10:09:02.064Z,97873.05
2017-11-19T10:10:06.168Z,97889.48
2017-11-19T10:11:09.972Z,97882.12
2017-11-19T10:12:13.779Z,97905.21
2017-11-19T10:13:17.886Z,97898.48
2017-11-19T10:14:21.726Z,97884.78
2017-11-19T10:15:25.608Z,97899.39
2017-11-19T10:16:29.721Z,97889.61
2017-11-19T10:17:33.539Z,97854.43
2017-11-19T10:18:37.383Z,97880.11
2017-11-19T10:19:41.249Z,97849.70
2017-11-19T10:20:45.106Z,97877.70
2017-11-19T10:21:48.975Z,97856.23
2017-11-19T10:22:53.018Z,97898.88
2017-11-19T10:23:56.892Z,97869.23
2017-11-19T10:25:00.682Z,97872.67
2017-11-19T10:26:04.500Z,97891.20
2017-11-19T10:27:08.373Z,97910.45
2017-11-19T10:28:12.207Z,97911.33
2017-11-19T10:29:16.386Z,97905.22
2017-11-19T10:30:20.199Z,97870.08
2017-11-19T10:31:24.829Z,97910.92
2017-11-19T10:32:28.665Z,97883.65
2017-11-19T10:33:32.612Z,97911.48
2017-11-19T10:34:36.409Z,97881.52
2017-11-19T10:35:40.548Z,97880.70
2017-11-19T10:36:44.396Z,97878.20
2017-11-19T10:37:48.220Z,97896.86
2017-11-19T10:38:52.043Z,97876.44
2017-11-19T10:39:55.882Z,97901.53
2017-11-19T10:40:59.708Z,97894.98
2017-11-19T10:42:03.892Z,97879.54
2017-11-19T10:43:08.409Z,97885.14
2017-11-19T10:44:12.286Z,97880.19
2017-11-19T10:45:16.176Z,97879.28
2017-11-19T10:46:20.128Z,97905.39
2017-11-19T10:47:24.006Z,97863.80
2017-11-19T10:48:28.221Z,97884.95
2017-11-19T10:49:32.199Z,97842.12
2017-11-19T10:50:36.375Z,97884.78
2017-11-19T10:51:40.649Z,97884.51
2017-11-19T10:52:44.448Z,97881.40
2017-11-19T10:53:48.302Z,97879.19
2017-11-19T10:54:52.429Z,97888.20
2017-11-19T10:55:56.305Z,97873.92
2017-11-19T10:57:00.105Z,97857.94
2017-11-19T10:58:03.956Z,97837.30
2017-11-19T11:15:21.432Z,97886.42
2017-11-19T11:16:25.513Z,97893.69
2017-11-19T11:17:29.445Z,97885.34
2017-11-19T11:18:34.120Z,97900.58
2017-11-19T11:19:38.876Z,97873.67
2017-11-19T11:20:42.993Z,97884.94
2017-11-19T11:21:46.838Z,97850.44
2017-11-19T11:22:50.695Z,97878.86
2017-11-19T11:23:54.624Z,97898.73
2017-11-19T11:24:58.438Z,97883.92
2017-11-19T11:26:02.190Z,97900.75
2017-11-19T11:27:06.015Z,97893.58
2017-11-19T11:28:09.740Z,97885.59
2017-11-19T11:29:13.660Z,97880.30
2017-11-19T11:30:17.336Z,97868.71
2017-11-19T11:31:20.999Z,97870.45
2017-11-19T11:32:25.007Z,97891.23
2017-11-19T11:33:28.886Z,97877.72
2017-11-19T11:34:32.688Z,97866.40
2017-11-19T11:35:36.921Z,97893.28
2017-11-19T11:36:40.621Z,97882.33
2017-11-19T11:37:44.812Z,97851.91
2017-11-19T11:38:48.940Z,97868.72
2017-11-19T11:39:52.800Z,97883.56
2017-11-19T11:40:57.141Z,97913.03
2017-11-19T11:42:00.910Z,97901.52
2017-11-19T11:43:04.788Z,97873.33
2017-11-19T11:44:08.506Z,97893.66
2017-11-19T11:45:12.701Z,97861.45
2017-11-19T11:46:16.660Z,97870.15
2017-11-19T11:47:20.595Z,97848.63
2017-11-19T11:48:25.385Z,97843.97
2017-11-19T11:49:29.168Z,97896.75
2017-11-19T11:50:32.967Z,97866.31
2017-11-19T11:51:37.406Z,97887.31
2017-11-19T11:52:41.264Z,97892.67
2017-11-19T11:53:45.070Z,97897.42
2017-11-19T11:54:48.871Z,97896.55
2017-11-19T11:55:52.702Z,97873.77
2017-11-19T11:56:56.531Z,97851.25
2017-11-19T11:58:01.306Z,97875.27
2017-11-19T11:59:05.208Z,97860.88
2017-11-19T12:00:08.867Z,97881.43
2017-11-19T12:01:12.701Z,97876.19
2017-11-19T12:02:16.559Z,97847.91
2017-11-19T12:03:20.452Z,97855.30
2017-11-19T12:04:24.600Z,97864.16
2017-11-19T12:05:28.519Z,97869.25
2017-11-19T12:06:32.286Z,97892.18
2017-11-19T12:07:36.101Z,97892.23
2017-11-19T12:08:39.889Z,97884.81
2017-11-19T12:09:43.721Z,97897.95
2017-11-19T12:10:48.023Z,97869.15
2017-11-19T12:11:51.890Z,97887.37
2017-11-19T12:12:55.778Z,97860.75
2017-11-19T12:13:59.666Z,97884.36
2017-11-19T12:15:03.676Z,97868.83
2017-11-19T12:16:07.737Z,97845.86
2017-11-19T12:17:11.896Z,97865.89
2017-11-19T12:18:15.703Z,97880.22
2017-11-19T12:19:19.628Z,97859.20
2017-11-19T12:20:23.537Z,97833.17
2017-11-19T12:21:27.579Z,97886.62
2017-11-19T12:22:31.768Z,97878.30
2017-11-19T12:23:35.659Z,97875.66
2017-11-19T12:24:39.591Z,97912.75
2017-11-19T12:25:43.473Z,97884.83
2017-11-19T12:26:47.414Z,97876.00
2017-11-19T12:27:51.279Z,97893.83
2017-11-19T12:28:55.774Z,97859.16
2017-11-19T12:29:59.607Z,97901.27
2017-11-19T12:31:03.599Z,97880.03
2017-11-19T12:32:07.549Z,97875.41
2017-11-19T12:33:11.744Z,97893.58
2017-11-19T12:34:15.670Z,97893.66
2017-11-19T12:35:20.028Z,97889.36
2017-11-19T12:36:24.199Z,97877.19
2017-11-19T12:37:28.192Z,97885.86
2017-11-19T12:38:32.688Z,97866.19
2017-11-19T12:39:36.705Z,97863.23
2017-11-19T12:40:44.781Z,97870.60
2017-11-19T12:41:48.666Z,97887.88
2017-11-19T12:42:52.518Z,97866.73
2017-11-19T12:43:56.464Z,97888.45
2017-11-19T12:45:00.339Z,97872.79
2017-11-19T12:46:04.195Z,97914.02
2017-11-19T12:47:08.336Z,97881.58
2017-11-19T12:48:12.199Z,97910.66
2017-11-19T12:49:16.066Z,97907.23
2017-11-19T12:50:19.932Z,97910.28
2017-11-19T12:51:23.846Z,97913.02
2017-11-19T12:52:27.620Z,97909.88
2017-11-19T12:53:31.973Z,97907.55
2017-11-19T12:54:35.888Z,97817.14
2017-11-19T12:55:39.793Z,97909.43
2017-11-19T12:56:43.714Z,97904.25
2017-11-19T12:57:48.649Z,97904.21
2017-11-19T12:58:52.544Z,97906.34
2017-11-19T12:59:57.024Z,97910.19
2017-11-19T13:01:00.885Z,97912.06